createdAt,value
2019-06-15T00:00:59.620Z,15.27
2019-06-15T00:03:27.974Z,13.37
2019-06-15T00:05:57.314Z,14.30
2019-06-15T00:08:25.690Z,14.13
2019-06-15T00:13:28.345Z,14.55
2019-06-15T00:15:57.600Z,13.13
2019-06-15T00:18:25.956Z,14.27
2019-06-15T00:20:58.067Z,13.63
2019-06-15T00:23:26.471Z,13.30
2019-06-15T00:28:44.049Z,14.47
2019-06-15T00:31:14.341Z,13.23
2019-06-15T00:36:29.957Z,13.87
2019-06-15T00:38:59.277Z,14.57
2019-06-15T00:41:27.637Z,14.52
2019-06-15T00:44:07.861Z,13.20
2019-06-15T00:46:42.797Z,13.47
2019-06-15T00:49:14.942Z,13.50
2019-06-15T00:54:17.639Z,14.50
2019-06-15T00:59:20.355Z,14.82
2019-06-15T01:02:07.537Z,14.90
2019-06-15T01:05:01.189Z,13.03
2019-06-15T01:07:30.482Z,12.90
2019-06-15T01:15:19.321Z,16.10
2019-06-15T01:17:59.024Z,15.10
2019-06-15T01:20:27.393Z,14.67
2019-06-15T01:28:15.130Z,15.23
2019-06-15T01:30:48.241Z,13.50
2019-06-15T01:33:16.584Z,15.10
2019-06-15T01:38:20.165Z,16.15
2019-06-15T01:40:53.196Z,13.97
2019-06-15T01:43:21.598Z,14.70
2019-06-15T01:45:53.670Z,15.70
2019-06-15T01:48:22.941Z,14.37
2019-06-15T01:51:01.330Z,15.60
2019-06-15T01:53:29.680Z,15.70
2019-06-15T01:56:14.728Z,15.37
2019-06-15T01:59:12.559Z,15.23
2019-06-15T02:01:40.914Z,16.87
2019-06-15T02:07:09.161Z,17.37
2019-06-15T02:10:02.852Z,14.27
2019-06-15T02:12:31.206Z,16.60
2019-06-15T02:14:59.554Z,17.27
2019-06-15T02:17:27.947Z,15.13
2019-06-15T02:20:06.519Z,14.70
2019-06-15T02:22:37.809Z,15.20
2019-06-15T02:25:06.188Z,15.07
2019-06-15T02:31:07.929Z,14.60
2019-06-15T02:41:35.047Z,17.20
2019-06-15T02:44:05.334Z,16.23
2019-06-15T02:46:33.686Z,14.50
2019-06-15T02:49:02.041Z,15.90
2019-06-15T02:51:30.447Z,16.90
2019-06-15T02:54:02.644Z,17.50
2019-06-15T02:56:31.041Z,16.50
2019-06-15T02:58:59.403Z,17.40
2019-06-15T03:01:27.756Z,17.87
2019-06-15T03:06:30.347Z,20.52
2019-06-15T03:09:05.988Z,18.42
2019-06-15T03:11:35.280Z,16.73
2019-06-15T03:14:14.734Z,18.73
2019-06-15T03:17:13.457Z,16.80
2019-06-15T03:19:45.568Z,16.30
2019-06-15T03:22:14.841Z,15.57
2019-06-15T03:27:25.502Z,19.70
2019-06-15T03:29:53.858Z,17.60
2019-06-15T03:32:22.281Z,18.63
2019-06-15T03:35:14.616Z,16.83
2019-06-15T03:37:42.974Z,19.67
2019-06-15T03:40:14.958Z,22.08
2019-06-15T03:42:43.307Z,20.80
2019-06-15T03:45:13.616Z,22.20
2019-06-15T03:47:58.822Z,20.80
2019-06-15T03:50:27.186Z,21.20
2019-06-15T03:55:31.943Z,19.67
2019-06-15T03:58:15.256Z,17.77
2019-06-15T04:01:13.254Z,17.60
2019-06-15T04:06:27.892Z,19.42
2019-06-15T04:08:56.268Z,18.10
2019-06-15T04:11:24.670Z,18.70
2019-06-15T04:14:12.316Z,16.00
2019-06-15T04:16:46.053Z,16.27
2019-06-15T04:19:14.416Z,17.37
2019-06-15T04:22:08.879Z,18.90
2019-06-15T04:24:40.713Z,17.13
2019-06-15T04:27:14.739Z,15.80
2019-06-15T04:29:47.589Z,14.80
2019-06-15T04:32:15.936Z,15.35
2019-06-15T04:35:14.034Z,16.30
2019-06-15T04:40:18.662Z,16.97
2019-06-15T04:43:06.323Z,15.30
2019-06-15T04:45:40.979Z,15.40
2019-06-15T04:48:14.939Z,14.07
2019-06-15T04:53:18.463Z,13.60
2019-06-15T04:55:48.707Z,11.30
2019-06-15T04:58:17.058Z,10.00
2019-06-15T05:00:52.803Z,10.67
2019-06-15T05:03:21.179Z,10.97
2019-06-15T05:06:06.004Z,10.10
2019-06-15T05:08:39.385Z,11.83
2019-06-15T05:11:13.409Z,9.90
2019-06-15T05:13:41.752Z,9.10
2019-06-15T05:16:37.528Z,10.57
2019-06-15T05:19:05.872Z,9.83
2019-06-15T05:21:34.229Z,8.50
2019-06-15T05:24:02.608Z,8.13
2019-06-15T05:29:20.019Z,7.60
2019-06-15T05:31:48.407Z,7.80
2019-06-15T05:34:18.676Z,7.37
2019-06-15T05:36:59.272Z,7.10
2019-06-15T05:39:27.680Z,6.30
2019-06-15T05:42:18.072Z,5.23
2019-06-15T05:44:50.900Z,5.40
2019-06-15T05:47:19.292Z,5.30
2019-06-15T05:50:17.196Z,4.73
2019-06-15T05:52:51.324Z,4.83
2019-06-15T05:55:19.723Z,4.30
2019-06-15T05:58:17.715Z,5.03
2019-06-15T06:01:14.524Z,4.80
2019-06-15T06:09:44.760Z,4.20
2019-06-15T06:12:13.144Z,3.90
2019-06-15T06:14:42.398Z,3.80
2019-06-15T06:17:10.761Z,4.10
2019-06-15T06:19:40.002Z,4.55
2019-06-15T06:24:42.689Z,4.30
2019-06-15T06:27:36.425Z,4.03
2019-06-15T06:29:57.222Z,4.50
2019-06-15T06:32:36.063Z,4.15
2019-06-15T06:35:30.383Z,3.83
2019-06-15T06:37:58.768Z,4.27
2019-06-15T06:40:40.900Z,3.97
2019-06-15T06:43:39.252Z,4.00
2019-06-15T06:46:07.590Z,4.13
2019-06-15T06:48:40.529Z,3.90
2019-06-15T06:51:09.816Z,3.27
2019-06-15T06:56:38.766Z,3.55
2019-06-15T06:59:11.121Z,3.37
2019-06-15T07:04:29.196Z,3.08
2019-06-15T07:06:57.545Z,2.73
2019-06-15T07:09:39.756Z,2.80
2019-06-15T07:14:44.447Z,2.87
2019-06-15T07:17:14.749Z,2.47
2019-06-15T07:19:43.091Z,2.70
2019-06-15T07:22:30.944Z,2.80
2019-06-15T07:30:39.949Z,2.85
2019-06-15T07:35:42.632Z,2.50
2019-06-15T07:38:28.076Z,2.33
2019-06-15T07:40:56.392Z,2.30
2019-06-15T07:43:28.279Z,2.10
2019-06-15T07:46:01.996Z,2.10
2019-06-15T07:48:30.388Z,1.90
2019-06-15T07:51:11.161Z,2.30
2019-06-15T07:53:39.525Z,2.50
2019-06-15T07:56:09.775Z,2.03
2019-06-15T07:58:38.143Z,2.00
2019-06-15T08:01:07.465Z,2.40
2019-06-15T08:03:36.776Z,2.00
2019-06-15T08:06:06.062Z,2.77
2019-06-15T08:08:34.417Z,2.20
2019-06-15T08:13:37.116Z,2.30
2019-06-15T08:16:11.696Z,2.03
2019-06-15T08:18:40.043Z,1.80
2019-06-15T08:21:08.397Z,2.80
2019-06-15T08:23:36.801Z,1.53
2019-06-15T08:28:44.171Z,2.43
2019-06-15T08:31:21.025Z,2.80
2019-06-15T08:36:57.020Z,1.80
2019-06-15T08:39:28.772Z,2.60
2019-06-15T08:42:10.114Z,2.60
2019-06-15T08:44:38.460Z,2.47
2019-06-15T08:49:42.104Z,2.47
2019-06-15T08:52:13.861Z,2.10
2019-06-15T08:54:42.274Z,2.30
2019-06-15T08:57:24.069Z,2.40
2019-06-15T08:59:53.362Z,2.37
2019-06-15T09:02:27.777Z,2.23
2019-06-15T09:04:58.032Z,2.93
2019-06-15T09:07:27.269Z,2.37
2019-06-15T09:10:08.363Z,2.10
2019-06-15T09:13:04.330Z,2.43
2019-06-15T09:15:46.104Z,2.30
2019-06-15T09:18:14.427Z,2.67
2019-06-15T09:20:42.795Z,2.50
2019-06-15T09:23:12.036Z,2.70
2019-06-15T09:25:52.599Z,2.60
2019-06-15T09:28:20.944Z,2.40
2019-06-15T09:30:49.343Z,3.00
2019-06-15T09:33:17.713Z,2.67
2019-06-15T09:35:54.101Z,2.67
2019-06-15T09:38:22.721Z,2.80
2019-06-15T09:40:56.118Z,2.37
2019-06-15T09:43:24.465Z,2.47
2019-06-15T09:45:52.826Z,2.30
2019-06-15T09:48:21.160Z,2.33
2019-06-15T09:50:55.254Z,2.33
2019-06-15T09:53:23.605Z,2.37
2019-06-15T09:56:06.594Z,2.73
2019-06-15T09:58:47.468Z,2.80
2019-06-15T10:01:16.729Z,2.70
2019-06-15T10:03:50.764Z,2.50
2019-06-15T10:06:19.105Z,3.10
2019-06-15T10:08:55.140Z,3.20
2019-06-15T10:11:23.498Z,2.80
2019-06-15T10:13:56.998Z,2.80
2019-06-15T10:19:06.757Z,2.70
2019-06-15T10:21:39.796Z,2.80
2019-06-15T10:24:27.600Z,2.23
2019-06-15T10:26:55.982Z,2.50
2019-06-15T10:29:41.904Z,2.00
2019-06-15T10:32:08.445Z,2.57
2019-06-15T10:34:40.458Z,2.60
2019-06-15T10:39:51.037Z,2.78
2019-06-15T10:42:22.713Z,2.13
2019-06-15T10:44:47.773Z,2.43
2019-06-15T10:47:17.064Z,2.40
2019-06-15T10:49:45.416Z,2.60
2019-06-15T10:52:31.085Z,2.57
2019-06-15T10:55:00.591Z,2.10
2019-06-15T10:57:39.299Z,2.78
2019-06-15T11:00:08.419Z,2.20
2019-06-15T11:02:40.261Z,2.40
2019-06-15T11:05:08.648Z,2.43
2019-06-15T11:07:36.981Z,2.17
2019-06-15T11:10:13.317Z,2.67
2019-06-15T11:12:46.342Z,2.60
2019-06-15T11:17:58.623Z,3.00
2019-06-15T11:20:39.516Z,2.40
2019-06-15T11:25:51.166Z,2.75
2019-06-15T11:28:27.967Z,2.60
2019-06-15T11:30:56.357Z,2.60
2019-06-15T11:33:36.658Z,2.43
2019-06-15T11:38:40.365Z,2.20
2019-06-15T11:41:22.000Z,2.53
2019-06-15T11:43:50.339Z,2.20
2019-06-15T11:46:33.349Z,2.00
2019-06-15T11:49:19.354Z,2.37
2019-06-15T11:51:47.743Z,2.23
2019-06-15T11:54:23.354Z,2.07
2019-06-15T11:56:51.716Z,2.30
2019-06-15T11:59:32.508Z,2.47
2019-06-15T12:02:27.286Z,1.97
2019-06-15T12:04:58.689Z,2.40
2019-06-15T12:07:28.062Z,1.97
2019-06-15T12:09:56.412Z,2.30
2019-06-15T12:12:36.858Z,2.03
2019-06-15T12:15:07.201Z,1.90
2019-06-15T12:17:39.881Z,2.40
2019-06-15T12:20:10.200Z,2.40
2019-06-15T12:22:38.553Z,2.13
2019-06-15T12:25:21.080Z,2.70
2019-06-15T12:27:49.444Z,2.70
2019-06-15T12:33:03.517Z,2.62
2019-06-15T12:38:17.266Z,2.80
2019-06-15T12:40:45.601Z,3.13
2019-06-15T12:43:17.357Z,3.08
2019-06-15T12:45:45.716Z,2.47
2019-06-15T12:48:15.434Z,3.17
2019-06-15T12:50:44.465Z,3.00
2019-06-15T12:56:01.240Z,2.78
2019-06-15T12:58:37.780Z,2.63
2019-06-15T13:01:16.752Z,2.87
2019-06-15T13:03:45.180Z,2.87
2019-06-15T13:06:19.500Z,2.57
2019-06-15T13:08:47.893Z,2.80
2019-06-15T13:13:50.649Z,3.10
2019-06-15T13:16:38.583Z,2.67
2019-06-15T13:18:52.829Z,3.10
2019-06-15T13:21:21.184Z,3.20
2019-06-15T13:23:49.591Z,2.80
2019-06-15T13:26:17.956Z,3.23
2019-06-15T13:28:46.356Z,3.00
2019-06-15T13:31:18.694Z,2.90
2019-06-15T13:33:46.667Z,2.40
2019-06-15T13:36:39.105Z,3.40
2019-06-15T13:39:07.505Z,2.60
2019-06-15T13:41:39.426Z,2.30
2019-06-15T13:44:14.064Z,2.70
2019-06-15T13:46:42.419Z,2.30
2019-06-15T13:49:14.135Z,3.67
2019-06-15T13:51:42.469Z,2.60
2019-06-15T13:54:13.764Z,2.30
2019-06-15T13:56:42.109Z,2.37
2019-06-15T13:59:33.965Z,2.47
2019-06-15T14:02:17.165Z,2.37
2019-06-15T14:04:45.555Z,2.93
2019-06-15T14:07:18.503Z,2.80
2019-06-15T14:09:46.846Z,2.43
2019-06-15T14:12:19.824Z,2.73
2019-06-15T14:14:48.200Z,2.60
2019-06-15T14:17:17.486Z,2.40
2019-06-15T14:19:45.823Z,2.90
2019-06-15T14:22:17.321Z,2.37
2019-06-15T14:24:45.673Z,2.17
2019-06-15T14:27:17.965Z,2.40
2019-06-15T14:29:47.152Z,2.30
2019-06-15T14:32:34.767Z,1.90
2019-06-15T14:35:13.481Z,2.07
2019-06-15T14:37:42.777Z,2.20
2019-06-15T14:43:16.293Z,2.40
2019-06-15T14:45:58.580Z,2.20
2019-06-15T14:50:47.270Z,2.37
2019-06-15T14:53:36.647Z,2.40
2019-06-15T14:58:39.846Z,3.00
2019-06-15T15:01:08.202Z,2.57
2019-06-15T15:03:37.674Z,2.70
2019-06-15T15:06:10.530Z,2.00
2019-06-15T15:08:39.779Z,2.10
2019-06-15T15:11:11.177Z,2.90
2019-06-15T15:16:17.836Z,2.40
2019-06-15T15:18:46.327Z,2.60
2019-06-15T15:21:12.461Z,2.20
2019-06-15T15:23:40.813Z,2.20
2019-06-15T15:26:39.423Z,1.80
2019-06-15T15:29:20.431Z,2.17
2019-06-15T15:31:48.828Z,2.20
2019-06-15T15:34:29.260Z,2.47
2019-06-15T15:36:57.631Z,1.90
2019-06-15T15:39:40.677Z,2.37
2019-06-15T15:42:16.938Z,2.30
2019-06-15T15:44:43.311Z,1.93
2019-06-15T15:47:38.160Z,2.57
2019-06-15T15:50:07.523Z,2.27
2019-06-15T15:52:40.108Z,2.60
2019-06-15T15:55:38.323Z,2.70
2019-06-15T15:58:38.049Z,2.60
2019-06-15T16:01:07.320Z,2.33
2019-06-15T16:03:40.116Z,2.47
2019-06-15T16:06:38.389Z,2.57
2019-06-15T16:09:27.216Z,2.83
2019-06-15T16:11:56.490Z,2.23
2019-06-15T16:14:27.309Z,2.30
2019-06-15T16:16:56.091Z,2.10
2019-06-15T16:19:26.365Z,2.10
2019-06-15T16:21:56.057Z,2.17
2019-06-15T16:24:39.446Z,2.50
2019-06-15T16:27:27.824Z,2.40
2019-06-15T16:29:56.958Z,11.33
2019-06-15T16:32:26.374Z,4.37
2019-06-15T16:35:09.929Z,2.60
2019-06-15T16:37:45.139Z,2.50
2019-06-15T16:40:15.693Z,2.03
2019-06-15T16:42:48.865Z,2.30
2019-06-15T16:45:17.243Z,2.40
2019-06-15T16:47:51.592Z,2.80
2019-06-15T16:50:19.938Z,9.00
2019-06-15T16:52:51.537Z,3.50
2019-06-15T16:55:20.513Z,3.00
2019-06-15T16:57:50.759Z,2.17
2019-06-15T17:00:19.102Z,2.00
2019-06-15T17:02:50.997Z,2.20
2019-06-15T17:05:19.424Z,3.73
2019-06-15T17:10:27.022Z,2.70
2019-06-15T17:13:03.271Z,2.40
2019-06-15T17:20:46.595Z,2.70
2019-06-15T17:23:16.391Z,2.60
2019-06-15T17:28:20.039Z,2.42
2019-06-15T17:31:00.890Z,2.60
2019-06-15T17:33:37.470Z,8.13
2019-06-15T17:38:53.845Z,3.80
2019-06-15T17:41:22.210Z,5.60
2019-06-15T17:43:50.588Z,4.00
2019-06-15T17:46:18.917Z,6.37
2019-06-15T17:48:58.020Z,4.57
2019-06-15T17:51:26.906Z,3.20
2019-06-15T17:56:53.018Z,3.00
2019-06-15T17:59:22.523Z,3.20
2019-06-15T18:02:10.808Z,2.73
2019-06-15T18:05:10.268Z,3.00
2019-06-15T18:07:42.461Z,3.87
2019-06-15T18:10:11.787Z,3.17
2019-06-15T18:13:04.040Z,2.60
2019-06-15T18:18:12.508Z,2.70
2019-06-15T18:20:56.851Z,2.40
2019-06-15T18:23:24.151Z,2.37
2019-06-15T18:26:11.343Z,2.53
2019-06-15T18:31:16.415Z,2.47
2019-06-15T18:34:13.278Z,2.30
2019-06-15T18:37:10.411Z,1.77
2019-06-15T18:39:38.761Z,2.20
2019-06-15T18:42:11.441Z,2.07
2019-06-15T18:47:16.613Z,2.65
2019-06-15T18:52:20.827Z,2.47
2019-06-15T18:54:56.046Z,2.67
2019-06-15T18:57:22.730Z,2.90
2019-06-15T18:59:56.971Z,3.33
2019-06-15T19:02:26.686Z,2.20
2019-06-15T19:07:28.004Z,2.45
2019-06-15T19:10:10.532Z,3.00
2019-06-15T19:15:16.779Z,3.30
2019-06-15T19:17:46.338Z,3.33
2019-06-15T19:20:13.996Z,3.37
2019-06-15T19:25:16.721Z,2.78
2019-06-15T19:28:08.842Z,2.70
2019-06-15T19:30:56.088Z,2.63
2019-06-15T19:33:22.420Z,2.90
2019-06-15T19:35:56.715Z,3.20
2019-06-15T19:38:23.467Z,3.20
2019-06-15T19:40:57.216Z,2.87
2019-06-15T19:43:25.638Z,3.00
2019-06-15T19:46:06.770Z,2.72
2019-06-15T19:48:58.216Z,2.80
2019-06-15T19:51:29.033Z,3.10
2019-06-15T19:56:30.193Z,3.27
2019-06-15T20:01:54.860Z,2.70
2019-06-15T20:04:23.252Z,2.97
2019-06-15T20:06:59.024Z,2.70
2019-06-15T20:09:27.376Z,3.00
2019-06-15T20:12:18.152Z,3.08
2019-06-15T20:14:37.724Z,3.40
2019-06-15T20:17:08.043Z,3.30
2019-06-15T20:19:37.654Z,2.77
2019-06-15T20:22:10.006Z,2.77
2019-06-15T20:27:17.633Z,4.30
2019-06-15T20:30:09.415Z,2.97
2019-06-15T20:32:41.137Z,2.80
2019-06-15T20:35:17.744Z,3.00
2019-06-15T20:37:55.946Z,2.70
2019-06-15T20:40:23.750Z,2.30
2019-06-15T20:45:31.429Z,2.62
2019-06-15T20:47:57.637Z,2.77
2019-06-15T20:50:28.533Z,2.90
2019-06-15T20:53:06.053Z,2.70
2019-06-15T20:58:09.477Z,2.90
2019-06-15T21:01:02.447Z,2.60
2019-06-15T21:03:30.798Z,3.00
2019-06-15T21:06:09.564Z,3.00
2019-06-15T21:09:03.841Z,2.87
2019-06-15T21:14:09.448Z,3.37
2019-06-15T21:19:16.897Z,3.10
2019-06-15T21:21:42.638Z,3.20
2019-06-15T21:24:10.973Z,3.37
2019-06-15T21:27:07.424Z,2.87
2019-06-15T21:32:13.153Z,3.75
2019-06-15T21:35:07.500Z,3.63
2019-06-15T21:37:47.348Z,3.93
2019-06-15T21:40:47.507Z,3.43
2019-06-15T21:43:21.081Z,6.70
2019-06-15T21:45:49.430Z,4.00
2019-06-15T21:51:28.473Z,3.87
2019-06-15T21:53:56.823Z,3.60
2019-06-15T21:59:00.445Z,4.50
2019-06-15T22:01:32.108Z,4.40
2019-06-15T22:06:49.313Z,2.80
2019-06-15T22:09:36.389Z,1.57
2019-06-15T22:12:03.475Z,0.83
2019-06-15T22:14:31.853Z,0.90
2019-06-15T22:17:00.209Z,2.23
2019-06-15T22:19:49.089Z,4.03
2019-06-15T22:22:23.573Z,2.40
2019-06-15T22:24:51.931Z,0.77
2019-06-15T22:27:33.117Z,1.50
